sensor_id;sensor_type;location;lat;lon;timestamp;P1;durP1;ratioP1;P2;durP2;ratioP2
65853;SDS011;52627;48.838;2.402;2023-01-28T00:01:35;19.10;;;10.10;;
65853;SDS011;52627;48.838;2.402;2023-01-28T00:04:02;22.60;;;11.00;;
65853;SDS011;52627;48.838;2.402;2023-01-28T00:06:30;20.00;;;10.80;;
65853;SDS011;52627;48.838;2.402;2023-01-28T00:08:57;21.20;;;11.30;;
65853;SDS011;52627;48.838;2.402;2023-01-28T00:11:25;20.50;;;10.50;;
65853;SDS011;52627;48.838;2.402;2023-01-28T00:13:53;20.20;;;10.40;;
65853;SDS011;52627;48.838;2.402;2023-01-28T00:16:20;22.20;;;10.90;;
65853;SDS011;52627;48.838;2.402;2023-01-28T00:18:53;21.20;;;11.50;;
65853;SDS011;52627;48.838;2.402;2023-01-28T00:21:21;21.60;;;11.10;;
65853;SDS011;52627;48.838;2.402;2023-01-28T00:23:53;21.80;;;11.10;;
65853;SDS011;52627;48.838;2.402;2023-01-28T00:26:23;20.00;;;10.60;;
65853;SDS011;52627;48.838;2.402;2023-01-28T00:28:51;19.30;;;9.90;;
65853;SDS011;52627;48.838;2.402;2023-01-28T00:31:21;19.50;;;9.60;;
65853;SDS011;52627;48.838;2.402;2023-01-28T00:33:50;22.30;;;10.50;;
65853;SDS011;52627;48.838;2.402;2023-01-28T00:36:19;19.90;;;10.00;;
65853;SDS011;52627;48.838;2.402;2023-01-28T00:38:53;19.40;;;10.40;;
65853;SDS011;52627;48.838;2.402;2023-01-28T00:41:24;19.70;;;9.40;;
65853;SDS011;52627;48.838;2.402;2023-01-28T00:43:53;18.10;;;9.10;;
65853;SDS011;52627;48.838;2.402;2023-01-28T00:46:21;21.20;;;10.60;;
65853;SDS011;52627;48.838;2.402;2023-01-28T00:48:49;20.10;;;9.90;;
65853;SDS011;52627;48.838;2.402;2023-01-28T00:51:18;20.70;;;10.30;;
65853;SDS011;52627;48.838;2.402;2023-01-28T00:56:17;20.10;;;10.80;;
65853;SDS011;52627;48.838;2.402;2023-01-28T00:58:46;20.40;;;9.70;;
65853;SDS011;52627;48.838;2.402;2023-01-28T01:01:16;18.50;;;9.40;;
65853;SDS011;52627;48.838;2.402;2023-01-28T01:03:46;18.90;;;10.00;;
65853;SDS011;52627;48.838;2.402;2023-01-28T01:06:20;18.60;;;9.90;;
65853;SDS011;52627;48.838;2.402;2023-01-28T01:08:48;22.20;;;10.20;;
65853;SDS011;52627;48.838;2.402;2023-01-28T01:11:17;19.50;;;10.10;;
65853;SDS011;52627;48.838;2.402;2023-01-28T01:13:56;23.10;;;10.70;;
65853;SDS011;52627;48.838;2.402;2023-01-28T01:16:30;18.80;;;9.30;;
65853;SDS011;52627;48.838;2.402;2023-01-28T01:19:02;18.10;;;9.60;;
65853;SDS011;52627;48.838;2.402;2023-01-28T01:21:29;17.20;;;9.80;;
65853;SDS011;52627;48.838;2.402;2023-01-28T01:23:57;20.60;;;9.80;;
65853;SDS011;52627;48.838;2.402;2023-01-28T01:26:24;18.80;;;10.40;;
65853;SDS011;52627;48.838;2.402;2023-01-28T01:28:53;18.00;;;9.50;;
65853;SDS011;52627;48.838;2.402;2023-01-28T01:31:21;17.80;;;9.20;;
65853;SDS011;52627;48.838;2.402;2023-01-28T01:33:51;19.50;;;9.40;;
65853;SDS011;52627;48.838;2.402;2023-01-28T01:36:19;18.60;;;9.80;;
65853;SDS011;52627;48.838;2.402;2023-01-28T01:38:52;17.80;;;9.00;;
65853;SDS011;52627;48.838;2.402;2023-01-28T01:41:30;17.70;;;9.10;;
65853;SDS011;52627;48.838;2.402;2023-01-28T01:44:01;19.70;;;8.60;;
65853;SDS011;52627;48.838;2.402;2023-01-28T01:46:34;19.60;;;9.60;;
65853;SDS011;52627;48.838;2.402;2023-01-28T01:49:23;16.40;;;8.20;;
65853;SDS011;52627;48.838;2.402;2023-01-28T01:52:00;16.30;;;8.50;;
65853;SDS011;52627;48.838;2.402;2023-01-28T01:54:31;17.90;;;9.20;;
65853;SDS011;52627;48.838;2.402;2023-01-28T01:56:59;21.70;;;9.80;;
65853;SDS011;52627;48.838;2.402;2023-01-28T01:59:29;16.90;;;8.90;;
65853;SDS011;52627;48.838;2.402;2023-01-28T02:02:00;16.90;;;8.90;;
65853;SDS011;52627;48.838;2.402;2023-01-28T02:04:35;19.10;;;9.20;;
65853;SDS011;52627;48.838;2.402;2023-01-28T02:07:07;14.60;;;8.30;;
65853;SDS011;52627;48.838;2.402;2023-01-28T02:09:35;17.40;;;9.20;;
65853;SDS011;52627;48.838;2.402;2023-01-28T02:12:11;16.10;;;8.20;;
65853;SDS011;52627;48.838;2.402;2023-01-28T02:17:36;16.80;;;9.60;;
65853;SDS011;52627;48.838;2.402;2023-01-28T02:20:10;18.90;;;9.10;;
65853;SDS011;52627;48.838;2.402;2023-01-28T02:31:50;17.70;;;9.10;;
65853;SDS011;52627;48.838;2.402;2023-01-28T02:34:44;19.80;;;9.10;;
65853;SDS011;52627;48.838;2.402;2023-01-28T02:37:18;19.50;;;9.80;;
65853;SDS011;52627;48.838;2.402;2023-01-28T02:39:56;19.20;;;9.80;;
65853;SDS011;52627;48.838;2.402;2023-01-28T02:42:31;21.00;;;11.20;;
65853;SDS011;52627;48.838;2.402;2023-01-28T02:45:00;18.40;;;9.80;;
65853;SDS011;52627;48.838;2.402;2023-01-28T02:47:27;18.10;;;9.60;;
65853;SDS011;52627;48.838;2.402;2023-01-28T02:50:16;17.90;;;9.90;;
65853;SDS011;52627;48.838;2.402;2023-01-28T02:53:04;20.10;;;10.40;;
65853;SDS011;52627;48.838;2.402;2023-01-28T02:56:17;18.30;;;9.10;;
65853;SDS011;52627;48.838;2.402;2023-01-28T02:58:55;19.80;;;10.60;;
65853;SDS011;52627;48.838;2.402;2023-01-28T03:01:35;21.30;;;10.80;;
65853;SDS011;52627;48.838;2.402;2023-01-28T03:07:28;19.20;;;10.00;;
65853;SDS011;52627;48.838;2.402;2023-01-28T03:10:01;20.40;;;10.50;;
65853;SDS011;52627;48.838;2.402;2023-01-28T03:12:34;20.10;;;10.80;;
65853;SDS011;52627;48.838;2.402;2023-01-28T03:15:25;19.90;;;10.20;;
65853;SDS011;52627;48.838;2.402;2023-01-28T03:18:16;21.10;;;10.30;;
65853;SDS011;52627;48.838;2.402;2023-01-28T03:21:06;20.10;;;10.50;;
65853;SDS011;52627;48.838;2.402;2023-01-28T03:23:57;21.80;;;10.60;;
65853;SDS011;52627;48.838;2.402;2023-01-28T03:30:10;21.90;;;10.50;;
65853;SDS011;52627;48.838;2.402;2023-01-28T03:33:00;20.70;;;9.50;;
65853;SDS011;52627;48.838;2.402;2023-01-28T03:35:46;19.10;;;10.00;;
65853;SDS011;52627;48.838;2.402;2023-01-28T03:38:33;22.20;;;10.40;;
65853;SDS011;52627;48.838;2.402;2023-01-28T03:41:09;21.10;;;10.60;;
65853;SDS011;52627;48.838;2.402;2023-01-28T03:43:41;19.30;;;10.90;;
65853;SDS011;52627;48.838;2.402;2023-01-28T03:46:09;21.90;;;10.10;;
65853;SDS011;52627;48.838;2.402;2023-01-28T03:48:37;18.60;;;9.60;;
65853;SDS011;52627;48.838;2.402;2023-01-28T03:51:04;20.70;;;10.40;;
65853;SDS011;52627;48.838;2.402;2023-01-28T03:53:32;19.20;;;10.00;;
65853;SDS011;52627;48.838;2.402;2023-01-28T03:55:59;22.70;;;10.80;;
65853;SDS011;52627;48.838;2.402;2023-01-28T03:58:27;19.10;;;10.10;;
65853;SDS011;52627;48.838;2.402;2023-01-28T04:01:14;19.20;;;10.80;;
65853;SDS011;52627;48.838;2.402;2023-01-28T04:03:41;18.70;;;9.40;;
65853;SDS011;52627;48.838;2.402;2023-01-28T04:06:09;16.50;;;8.80;;
65853;SDS011;52627;48.838;2.402;2023-01-28T04:08:36;21.70;;;11.40;;
65853;SDS011;52627;48.838;2.402;2023-01-28T04:11:04;18.60;;;9.40;;
65853;SDS011;52627;48.838;2.402;2023-01-28T04:13:47;18.90;;;11.00;;
65853;SDS011;52627;48.838;2.402;2023-01-28T04:16:16;19.40;;;9.60;;
65853;SDS011;52627;48.838;2.402;2023-01-28T04:18:45;18.30;;;9.00;;
65853;SDS011;52627;48.838;2.402;2023-01-28T04:21:13;19.90;;;10.00;;
65853;SDS011;52627;48.838;2.402;2023-01-28T04:23:40;18.10;;;9.80;;
65853;SDS011;52627;48.838;2.402;2023-01-28T04:26:08;21.50;;;11.00;;
65853;SDS011;52627;48.838;2.402;2023-01-28T04:28:35;18.30;;;9.30;;
65853;SDS011;52627;48.838;2.402;2023-01-28T04:31:03;20.30;;;10.20;;
65853;SDS011;52627;48.838;2.402;2023-01-28T04:33:30;20.10;;;10.10;;
65853;SDS011;52627;48.838;2.402;2023-01-28T04:35:58;18.20;;;9.70;;
65853;SDS011;52627;48.838;2.402;2023-01-28T04:38:25;19.00;;;10.00;;
65853;SDS011;52627;48.838;2.402;2023-01-28T04:40:53;22.10;;;11.10;;
65853;SDS011;52627;48.838;2.402;2023-01-28T04:43:21;19.20;;;10.00;;
65853;SDS011;52627;48.838;2.402;2023-01-28T04:45:48;22.40;;;10.40;;
65853;SDS011;52627;48.838;2.402;2023-01-28T04:48:16;20.40;;;10.50;;
65853;SDS011;52627;48.838;2.402;2023-01-28T04:50:44;19.40;;;10.30;;
65853;SDS011;52627;48.838;2.402;2023-01-28T04:53:11;22.10;;;11.60;;
65853;SDS011;52627;48.838;2.402;2023-01-28T04:55:39;20.30;;;10.40;;
65853;SDS011;52627;48.838;2.402;2023-01-28T04:58:07;20.30;;;10.70;;
65853;SDS011;52627;48.838;2.402;2023-01-28T05:00:34;18.70;;;10.30;;
65853;SDS011;52627;48.838;2.402;2023-01-28T05:03:01;20.70;;;10.30;;
65853;SDS011;52627;48.838;2.402;2023-01-28T05:05:29;21.70;;;11.20;;
65853;SDS011;52627;48.838;2.402;2023-01-28T05:07:57;20.10;;;10.60;;
65853;SDS011;52627;48.838;2.402;2023-01-28T05:10:26;21.40;;;10.70;;
65853;SDS011;52627;48.838;2.402;2023-01-28T05:12:54;21.30;;;11.40;;
65853;SDS011;52627;48.838;2.402;2023-01-28T05:15:22;21.20;;;11.40;;
65853;SDS011;52627;48.838;2.402;2023-01-28T05:17:49;22.90;;;10.80;;
65853;SDS011;52627;48.838;2.402;2023-01-28T05:20:16;23.10;;;11.70;;
65853;SDS011;52627;48.838;2.402;2023-01-28T05:22:44;19.70;;;11.00;;
65853;SDS011;52627;48.838;2.402;2023-01-28T05:25:12;22.00;;;11.70;;
65853;SDS011;52627;48.838;2.402;2023-01-28T05:27:40;24.10;;;11.40;;
65853;SDS011;52627;48.838;2.402;2023-01-28T05:30:08;21.50;;;11.20;;
65853;SDS011;52627;48.838;2.402;2023-01-28T05:32:36;22.60;;;11.30;;
65853;SDS011;52627;48.838;2.402;2023-01-28T05:35:03;22.60;;;11.70;;
65853;SDS011;52627;48.838;2.402;2023-01-28T05:37:31;24.90;;;11.90;;
65853;SDS011;52627;48.838;2.402;2023-01-28T05:39:59;23.70;;;11.20;;
65853;SDS011;52627;48.838;2.402;2023-01-28T05:42:26;22.90;;;12.30;;
65853;SDS011;52627;48.838;2.402;2023-01-28T05:44:54;24.80;;;12.30;;
65853;SDS011;52627;48.838;2.402;2023-01-28T05:47:21;24.60;;;11.60;;
65853;SDS011;52627;48.838;2.402;2023-01-28T05:49:49;23.30;;;11.20;;
65853;SDS011;52627;48.838;2.402;2023-01-28T05:52:16;21.20;;;10.90;;
65853;SDS011;52627;48.838;2.402;2023-01-28T05:54:44;23.90;;;11.90;;
65853;SDS011;52627;48.838;2.402;2023-01-28T05:57:11;22.10;;;11.00;;
65853;SDS011;52627;48.838;2.402;2023-01-28T05:59:39;22.10;;;11.30;;
65853;SDS011;52627;48.838;2.402;2023-01-28T06:02:06;20.50;;;10.60;;
65853;SDS011;52627;48.838;2.402;2023-01-28T06:04:34;22.80;;;12.00;;
65853;SDS011;52627;48.838;2.402;2023-01-28T06:07:01;22.10;;;12.10;;
65853;SDS011;52627;48.838;2.402;2023-01-28T06:09:29;22.20;;;12.50;;
65853;SDS011;52627;48.838;2.402;2023-01-28T06:11:56;24.60;;;12.40;;
65853;SDS011;52627;48.838;2.402;2023-01-28T06:14:23;22.10;;;11.60;;
65853;SDS011;52627;48.838;2.402;2023-01-28T06:16:51;22.80;;;11.50;;
65853;SDS011;52627;48.838;2.402;2023-01-28T06:19:18;24.70;;;12.60;;
65853;SDS011;52627;48.838;2.402;2023-01-28T06:21:46;20.40;;;11.00;;
65853;SDS011;52627;48.838;2.402;2023-01-28T06:24:13;24.40;;;12.60;;
65853;SDS011;52627;48.838;2.402;2023-01-28T06:26:41;26.70;;;12.80;;
65853;SDS011;52627;48.838;2.402;2023-01-28T06:29:08;29.50;;;13.70;;
65853;SDS011;52627;48.838;2.402;2023-01-28T06:31:36;23.60;;;11.80;;
65853;SDS011;52627;48.838;2.402;2023-01-28T06:34:04;21.90;;;11.10;;
65853;SDS011;52627;48.838;2.402;2023-01-28T06:36:31;25.50;;;11.70;;
65853;SDS011;52627;48.838;2.402;2023-01-28T06:38:59;22.80;;;12.00;;
65853;SDS011;52627;48.838;2.402;2023-01-28T06:41:26;23.10;;;11.40;;
65853;SDS011;52627;48.838;2.402;2023-01-28T06:43:54;23.50;;;12.00;;
65853;SDS011;52627;48.838;2.402;2023-01-28T06:46:21;25.20;;;12.90;;
65853;SDS011;52627;48.838;2.402;2023-01-28T06:48:49;23.10;;;11.50;;
65853;SDS011;52627;48.838;2.402;2023-01-28T06:51:16;21.40;;;11.00;;
65853;SDS011;52627;48.838;2.402;2023-01-28T06:53:44;24.80;;;12.90;;
65853;SDS011;52627;48.838;2.402;2023-01-28T06:56:12;23.60;;;11.60;;
65853;SDS011;52627;48.838;2.402;2023-01-28T06:58:40;21.30;;;10.60;;
65853;SDS011;52627;48.838;2.402;2023-01-28T07:01:07;23.40;;;11.80;;
65853;SDS011;52627;48.838;2.402;2023-01-28T07:03:35;24.40;;;11.80;;
65853;SDS011;52627;48.838;2.402;2023-01-28T07:06:03;22.40;;;11.60;;
65853;SDS011;52627;48.838;2.402;2023-01-28T07:08:30;22.30;;;11.60;;
65853;SDS011;52627;48.838;2.402;2023-01-28T07:10:59;23.80;;;12.30;;
65853;SDS011;52627;48.838;2.402;2023-01-28T07:13:26;24.60;;;11.80;;
65853;SDS011;52627;48.838;2.402;2023-01-28T07:15:54;23.80;;;11.50;;
65853;SDS011;52627;48.838;2.402;2023-01-28T07:18:21;20.90;;;10.30;;
65853;SDS011;52627;48.838;2.402;2023-01-28T07:20:49;21.70;;;10.70;;
65853;SDS011;52627;48.838;2.402;2023-01-28T07:23:16;23.30;;;11.70;;
65853;SDS011;52627;48.838;2.402;2023-01-28T07:25:44;24.00;;;11.40;;
65853;SDS011;52627;48.838;2.402;2023-01-28T07:28:11;21.80;;;11.30;;
65853;SDS011;52627;48.838;2.402;2023-01-28T07:30:39;23.40;;;11.80;;
65853;SDS011;52627;48.838;2.402;2023-01-28T07:33:06;21.90;;;11.20;;
65853;SDS011;52627;48.838;2.402;2023-01-28T07:35:34;22.60;;;10.90;;
65853;SDS011;52627;48.838;2.402;2023-01-28T07:38:01;22.40;;;12.10;;
65853;SDS011;52627;48.838;2.402;2023-01-28T07:40:29;23.00;;;11.20;;
65853;SDS011;52627;48.838;2.402;2023-01-28T07:42:56;22.20;;;11.30;;
65853;SDS011;52627;48.838;2.402;2023-01-28T07:45:24;22.20;;;11.40;;
65853;SDS011;52627;48.838;2.402;2023-01-28T07:48:00;22.90;;;10.90;;
65853;SDS011;52627;48.838;2.402;2023-01-28T07:50:30;23.40;;;11.40;;
65853;SDS011;52627;48.838;2.402;2023-01-28T07:53:08;20.80;;;10.60;;
65853;SDS011;52627;48.838;2.402;2023-01-28T07:55:37;23.70;;;10.90;;
65853;SDS011;52627;48.838;2.402;2023-01-28T07:58:07;24.40;;;12.10;;
65853;SDS011;52627;48.838;2.402;2023-01-28T08:00:35;23.60;;;10.70;;
65853;SDS011;52627;48.838;2.402;2023-01-28T08:03:06;23.90;;;11.50;;
65853;SDS011;52627;48.838;2.402;2023-01-28T08:05:46;23.40;;;12.90;;
65853;SDS011;52627;48.838;2.402;2023-01-28T08:08:15;22.40;;;10.70;;
65853;SDS011;52627;48.838;2.402;2023-01-28T08:10:44;23.90;;;11.50;;
65853;SDS011;52627;48.838;2.402;2023-01-28T08:13:12;21.40;;;11.20;;
65853;SDS011;52627;48.838;2.402;2023-01-28T08:15:41;22.20;;;11.20;;
65853;SDS011;52627;48.838;2.402;2023-01-28T08:18:11;25.30;;;12.00;;
65853;SDS011;52627;48.838;2.402;2023-01-28T08:23:15;21.60;;;10.90;;
65853;SDS011;52627;48.838;2.402;2023-01-28T08:25:44;21.50;;;11.20;;
65853;SDS011;52627;48.838;2.402;2023-01-28T08:28:13;22.30;;;11.30;;
65853;SDS011;52627;48.838;2.402;2023-01-28T08:30:42;23.10;;;11.30;;
65853;SDS011;52627;48.838;2.402;2023-01-28T08:33:11;21.10;;;10.70;;
65853;SDS011;52627;48.838;2.402;2023-01-28T08:35:40;23.50;;;12.30;;
65853;SDS011;52627;48.838;2.402;2023-01-28T08:38:09;22.60;;;11.00;;
65853;SDS011;52627;48.838;2.402;2023-01-28T08:40:38;23.60;;;11.00;;
65853;SDS011;52627;48.838;2.402;2023-01-28T08:43:06;23.10;;;11.50;;
65853;SDS011;52627;48.838;2.402;2023-01-28T08:45:33;21.90;;;11.00;;
65853;SDS011;52627;48.838;2.402;2023-01-28T08:48:04;22.60;;;11.10;;
65853;SDS011;52627;48.838;2.402;2023-01-28T08:50:34;23.70;;;11.80;;
65853;SDS011;52627;48.838;2.402;2023-01-28T08:53:15;22.40;;;12.00;;
65853;SDS011;52627;48.838;2.402;2023-01-28T08:55:44;21.60;;;11.10;;
65853;SDS011;52627;48.838;2.402;2023-01-28T08:58:15;21.90;;;11.10;;
65853;SDS011;52627;48.838;2.402;2023-01-28T09:00:44;20.20;;;9.70;;
65853;SDS011;52627;48.838;2.402;2023-01-28T09:03:12;20.00;;;10.40;;
65853;SDS011;52627;48.838;2.402;2023-01-28T09:05:39;19.60;;;10.30;;
65853;SDS011;52627;48.838;2.402;2023-01-28T09:08:10;20.20;;;10.30;;
65853;SDS011;52627;48.838;2.402;2023-01-28T09:10:39;21.10;;;10.50;;
65853;SDS011;52627;48.838;2.402;2023-01-28T09:13:11;22.00;;;11.30;;
65853;SDS011;52627;48.838;2.402;2023-01-28T09:15:41;18.50;;;9.20;;
65853;SDS011;52627;48.838;2.402;2023-01-28T09:18:09;21.10;;;10.30;;
65853;SDS011;52627;48.838;2.402;2023-01-28T09:20:37;21.80;;;11.10;;
65853;SDS011;52627;48.838;2.402;2023-01-28T09:23:05;18.80;;;10.60;;
65853;SDS011;52627;48.838;2.402;2023-01-28T09:25:33;20.00;;;10.40;;
65853;SDS011;52627;48.838;2.402;2023-01-28T09:28:03;22.10;;;10.70;;
65853;SDS011;52627;48.838;2.402;2023-01-28T09:30:31;20.50;;;11.20;;
65853;SDS011;52627;48.838;2.402;2023-01-28T09:33:02;17.70;;;9.10;;
65853;SDS011;52627;48.838;2.402;2023-01-28T09:35:29;18.70;;;9.30;;
65853;SDS011;52627;48.838;2.402;2023-01-28T09:37:57;19.90;;;10.80;;
65853;SDS011;52627;48.838;2.402;2023-01-28T09:40:31;19.80;;;10.30;;
65853;SDS011;52627;48.838;2.402;2023-01-28T09:43:07;18.20;;;9.90;;
65853;SDS011;52627;48.838;2.402;2023-01-28T09:45:41;19.80;;;10.40;;
65853;SDS011;52627;48.838;2.402;2023-01-28T09:48:16;19.90;;;10.00;;
65853;SDS011;52627;48.838;2.402;2023-01-28T09:50:51;22.00;;;11.40;;
65853;SDS011;52627;48.838;2.402;2023-01-28T09:53:22;22.80;;;11.80;;
65853;SDS011;52627;48.838;2.402;2023-01-28T09:58:52;18.20;;;9.30;;
65853;SDS011;52627;48.838;2.402;2023-01-28T10:01:34;17.60;;;9.00;;
65853;SDS011;52627;48.838;2.402;2023-01-28T10:04:19;19.60;;;10.00;;
65853;SDS011;52627;48.838;2.402;2023-01-28T10:07:15;17.50;;;9.40;;
65853;SDS011;52627;48.838;2.402;2023-01-28T10:13:50;18.00;;;9.40;;
65853;SDS011;52627;48.838;2.402;2023-01-28T10:16:37;16.30;;;9.00;;
65853;SDS011;52627;48.838;2.402;2023-01-28T10:19:15;17.80;;;9.30;;
65853;SDS011;52627;48.838;2.402;2023-01-28T10:21:50;18.60;;;10.20;;
65853;SDS011;52627;48.838;2.402;2023-01-28T10:26:57;20.80;;;10.20;;
65853;SDS011;52627;48.838;2.402;2023-01-28T10:29:31;19.20;;;10.40;;
65853;SDS011;52627;48.838;2.402;2023-01-28T10:34:53;20.10;;;10.30;;
65853;SDS011;52627;48.838;2.402;2023-01-28T10:37:22;16.40;;;10.00;;
65853;SDS011;52627;48.838;2.402;2023-01-28T10:39:55;17.90;;;9.80;;
65853;SDS011;52627;48.838;2.402;2023-01-28T10:42:29;20.20;;;9.70;;
65853;SDS011;52627;48.838;2.402;2023-01-28T10:45:01;16.00;;;9.10;;
65853;SDS011;52627;48.838;2.402;2023-01-28T10:47:55;16.90;;;9.70;;
65853;SDS011;52627;48.838;2.402;2023-01-28T10:50:29;15.30;;;9.10;;
65853;SDS011;52627;48.838;2.402;2023-01-28T10:52:59;18.00;;;9.90;;
65853;SDS011;52627;48.838;2.402;2023-01-28T10:55:33;17.60;;;9.20;;
65853;SDS011;52627;48.838;2.402;2023-01-28T10:58:03;16.10;;;9.90;;
65853;SDS011;52627;48.838;2.402;2023-01-28T11:00:36;16.20;;;10.00;;
65853;SDS011;52627;48.838;2.402;2023-01-28T11:03:04;16.90;;;9.70;;
65853;SDS011;52627;48.838;2.402;2023-01-28T11:05:31;15.10;;;9.60;;
65853;SDS011;52627;48.838;2.402;2023-01-28T11:08:08;18.50;;;9.50;;
65853;SDS011;52627;48.838;2.402;2023-01-28T11:10:41;18.30;;;9.60;;
65853;SDS011;52627;48.838;2.402;2023-01-28T11:13:17;17.80;;;9.40;;
65853;SDS011;52627;48.838;2.402;2023-01-28T11:18:58;17.30;;;8.60;;
65853;SDS011;52627;48.838;2.402;2023-01-28T11:21:29;17.60;;;9.40;;
65853;SDS011;52627;48.838;2.402;2023-01-28T11:24:00;16.90;;;9.00;;
65853;SDS011;52627;48.838;2.402;2023-01-28T11:26:33;15.70;;;8.90;;
65853;SDS011;52627;48.838;2.402;2023-01-28T11:29:03;14.80;;;9.00;;
65853;SDS011;52627;48.838;2.402;2023-01-28T11:31:36;16.90;;;8.90;;
65853;SDS011;52627;48.838;2.402;2023-01-28T11:34:12;14.20;;;8.50;;
65853;SDS011;52627;48.838;2.402;2023-01-28T11:36:50;16.30;;;9.30;;
65853;SDS011;52627;48.838;2.402;2023-01-28T11:39:28;17.00;;;9.30;;
65853;SDS011;52627;48.838;2.402;2023-01-28T11:42:21;15.90;;;8.40;;
65853;SDS011;52627;48.838;2.402;2023-01-28T11:44:49;14.70;;;8.10;;
65853;SDS011;52627;48.838;2.402;2023-01-28T11:47:45;14.20;;;7.90;;
65853;SDS011;52627;48.838;2.402;2023-01-28T11:50:45;15.90;;;9.00;;
65853;SDS011;52627;48.838;2.402;2023-01-28T12:07:49;18.70;;;9.70;;
65853;SDS011;52627;48.838;2.402;2023-01-28T12:20:49;16.90;;;9.60;;
65853;SDS011;52627;48.838;2.402;2023-01-28T12:26:51;17.10;;;9.40;;
65853;SDS011;52627;48.838;2.402;2023-01-28T12:29:46;18.40;;;10.00;;
65853;SDS011;52627;48.838;2.402;2023-01-28T12:35:26;19.20;;;9.80;;
65853;SDS011;52627;48.838;2.402;2023-01-28T12:40:58;15.70;;;9.00;;
65853;SDS011;52627;48.838;2.402;2023-01-28T12:43:44;17.70;;;9.80;;
65853;SDS011;52627;48.838;2.402;2023-01-28T12:46:26;20.00;;;10.50;;
65853;SDS011;52627;48.838;2.402;2023-01-28T12:49:06;15.40;;;8.40;;
65853;SDS011;52627;48.838;2.402;2023-01-28T12:51:48;15.80;;;8.80;;
65853;SDS011;52627;48.838;2.402;2023-01-28T12:54:28;15.60;;;8.80;;
65853;SDS011;52627;48.838;2.402;2023-01-28T12:57:00;16.70;;;9.40;;
65853;SDS011;52627;48.838;2.402;2023-01-28T12:59:35;17.00;;;9.30;;
65853;SDS011;52627;48.838;2.402;2023-01-28T13:05:13;18.40;;;10.30;;
65853;SDS011;52627;48.838;2.402;2023-01-28T13:07:55;18.20;;;10.50;;
65853;SDS011;52627;48.838;2.402;2023-01-28T13:10:34;19.90;;;10.30;;
65853;SDS011;52627;48.838;2.402;2023-01-28T13:13:04;19.40;;;10.30;;
65853;SDS011;52627;48.838;2.402;2023-01-28T13:15:42;18.80;;;10.10;;
65853;SDS011;52627;48.838;2.402;2023-01-28T13:24:19;18.70;;;10.60;;
65853;SDS011;52627;48.838;2.402;2023-01-28T13:26:51;18.00;;;9.40;;
65853;SDS011;52627;48.838;2.402;2023-01-28T13:31:56;19.00;;;10.40;;
65853;SDS011;52627;48.838;2.402;2023-01-28T13:34:32;20.30;;;11.60;;
65853;SDS011;52627;48.838;2.402;2023-01-28T13:39:50;19.50;;;10.50;;
65853;SDS011;52627;48.838;2.402;2023-01-28T13:42:24;19.60;;;10.90;;
65853;SDS011;52627;48.838;2.402;2023-01-28T13:44:54;17.00;;;9.90;;
65853;SDS011;52627;48.838;2.402;2023-01-28T13:47:26;17.10;;;8.90;;
65853;SDS011;52627;48.838;2.402;2023-01-28T13:50:04;17.40;;;10.20;;
65853;SDS011;52627;48.838;2.402;2023-01-28T13:52:49;17.60;;;9.40;;
65853;SDS011;52627;48.838;2.402;2023-01-28T13:55:22;16.20;;;8.90;;
65853;SDS011;52627;48.838;2.402;2023-01-28T14:01:18;17.90;;;9.80;;
65853;SDS011;52627;48.838;2.402;2023-01-28T14:07:23;18.60;;;10.00;;
65853;SDS011;52627;48.838;2.402;2023-01-28T14:18:43;16.60;;;9.40;;
65853;SDS011;52627;48.838;2.402;2023-01-28T14:21:17;16.50;;;9.40;;
65853;SDS011;52627;48.838;2.402;2023-01-28T14:23:49;18.80;;;10.30;;
65853;SDS011;52627;48.838;2.402;2023-01-28T14:26:55;18.70;;;9.40;;
65853;SDS011;52627;48.838;2.402;2023-01-28T14:32:32;19.30;;;9.80;;
65853;SDS011;52627;48.838;2.402;2023-01-28T14:35:06;19.80;;;10.10;;
65853;SDS011;52627;48.838;2.402;2023-01-28T14:37:35;19.90;;;10.10;;
65853;SDS011;52627;48.838;2.402;2023-01-28T14:40:05;18.30;;;10.00;;
65853;SDS011;52627;48.838;2.402;2023-01-28T14:48:47;18.60;;;10.00;;
65853;SDS011;52627;48.838;2.402;2023-01-28T14:54:16;20.50;;;11.10;;
65853;SDS011;52627;48.838;2.402;2023-01-28T14:59:56;18.00;;;9.90;;
65853;SDS011;52627;48.838;2.402;2023-01-28T15:02:26;18.50;;;9.70;;
65853;SDS011;52627;48.838;2.402;2023-01-28T15:05:10;18.70;;;9.70;;
65853;SDS011;52627;48.838;2.402;2023-01-28T15:07:46;17.90;;;9.70;;
65853;SDS011;52627;48.838;2.402;2023-01-28T15:10:30;18.90;;;10.60;;
65853;SDS011;52627;48.838;2.402;2023-01-28T15:13:08;20.20;;;10.10;;
65853;SDS011;52627;48.838;2.402;2023-01-28T15:15:39;20.40;;;10.10;;
65853;SDS011;52627;48.838;2.402;2023-01-28T15:20:47;19.20;;;10.40;;
65853;SDS011;52627;48.838;2.402;2023-01-28T15:23:24;18.60;;;10.50;;
65853;SDS011;52627;48.838;2.402;2023-01-28T15:25:53;19.70;;;9.90;;
65853;SDS011;52627;48.838;2.402;2023-01-28T15:28:30;20.10;;;10.50;;
65853;SDS011;52627;48.838;2.402;2023-01-28T15:30:58;17.20;;;9.30;;
65853;SDS011;52627;48.838;2.402;2023-01-28T15:33:26;20.70;;;10.80;;
65853;SDS011;52627;48.838;2.402;2023-01-28T15:35:55;19.10;;;10.40;;
65853;SDS011;52627;48.838;2.402;2023-01-28T15:38:26;18.20;;;9.80;;
65853;SDS011;52627;48.838;2.402;2023-01-28T15:40:57;17.90;;;9.60;;
65853;SDS011;52627;48.838;2.402;2023-01-28T15:43:31;19.40;;;10.00;;
65853;SDS011;52627;48.838;2.402;2023-01-28T15:46:02;20.90;;;10.80;;
65853;SDS011;52627;48.838;2.402;2023-01-28T15:48:32;20.20;;;9.70;;
65853;SDS011;52627;48.838;2.402;2023-01-28T15:51:05;20.50;;;10.00;;
65853;SDS011;52627;48.838;2.402;2023-01-28T15:53:45;19.90;;;10.50;;
65853;SDS011;52627;48.838;2.402;2023-01-28T15:56:14;19.60;;;10.30;;
65853;SDS011;52627;48.838;2.402;2023-01-28T15:58:42;18.50;;;9.60;;
65853;SDS011;52627;48.838;2.402;2023-01-28T16:01:17;17.20;;;9.50;;
65853;SDS011;52627;48.838;2.402;2023-01-28T16:03:59;18.70;;;10.70;;
65853;SDS011;52627;48.838;2.402;2023-01-28T16:06:36;20.30;;;10.00;;
65853;SDS011;52627;48.838;2.402;2023-01-28T16:09:12;19.20;;;10.20;;
65853;SDS011;52627;48.838;2.402;2023-01-28T16:11:44;21.40;;;10.90;;
65853;SDS011;52627;48.838;2.402;2023-01-28T16:14:26;21.60;;;11.10;;
65853;SDS011;52627;48.838;2.402;2023-01-28T16:16:55;20.00;;;9.70;;
65853;SDS011;52627;48.838;2.402;2023-01-28T16:21:58;19.90;;;10.00;;
65853;SDS011;52627;48.838;2.402;2023-01-28T16:24:28;18.30;;;9.30;;
65853;SDS011;52627;48.838;2.402;2023-01-28T16:27:01;19.30;;;10.30;;
65853;SDS011;52627;48.838;2.402;2023-01-28T16:29:30;20.80;;;10.80;;
65853;SDS011;52627;48.838;2.402;2023-01-28T16:31:59;19.30;;;10.40;;
65853;SDS011;52627;48.838;2.402;2023-01-28T16:34:27;20.70;;;10.30;;
65853;SDS011;52627;48.838;2.402;2023-01-28T16:36:58;22.40;;;11.00;;
65853;SDS011;52627;48.838;2.402;2023-01-28T16:39:26;18.80;;;9.80;;
65853;SDS011;52627;48.838;2.402;2023-01-28T16:41:53;20.50;;;10.90;;
65853;SDS011;52627;48.838;2.402;2023-01-28T16:44:23;21.00;;;9.90;;
65853;SDS011;52627;48.838;2.402;2023-01-28T16:46:50;22.00;;;11.10;;
65853;SDS011;52627;48.838;2.402;2023-01-28T16:49:18;21.00;;;10.60;;
65853;SDS011;52627;48.838;2.402;2023-01-28T16:51:45;21.00;;;10.30;;
65853;SDS011;52627;48.838;2.402;2023-01-28T16:54:14;20.70;;;11.00;;
65853;SDS011;52627;48.838;2.402;2023-01-28T16:56:42;21.30;;;11.70;;
65853;SDS011;52627;48.838;2.402;2023-01-28T16:59:14;20.70;;;11.10;;